sensor_id;sensor_type;location;lat;lon;timestamp;P1;durP1;ratioP1;P2;durP2;ratioP2
43861;SDS011;29510;52.140;5.034;2024-03-25T00:03:19;14.48;;;2.20;;
43861;SDS011;29510;52.140;5.034;2024-03-25T00:13:20;16.23;;;2.30;;
43861;SDS011;29510;52.140;5.034;2024-03-25T00:33:31;14.65;;;2.28;;
43861;SDS011;29510;52.140;5.034;2024-03-25T00:43:32;16.40;;;2.30;;
43861;SDS011;29510;52.140;5.034;2024-03-25T00:53:33;13.30;;;1.90;;
43861;SDS011;29510;52.140;5.034;2024-03-25T01:03:34;9.63;;;1.95;;
43861;SDS011;29510;52.140;5.034;2024-03-25T01:13:34;12.77;;;2.83;;
43861;SDS011;29510;52.140;5.034;2024-03-25T01:23:35;11.63;;;1.75;;
43861;SDS011;29510;52.140;5.034;2024-03-25T01:33:36;10.32;;;1.80;;
43861;SDS011;29510;52.140;5.034;2024-03-25T01:43:38;11.57;;;2.05;;
43861;SDS011;29510;52.140;5.034;2024-03-25T01:53:52;14.25;;;1.88;;
43861;SDS011;29510;52.140;5.034;2024-03-25T02:03:54;11.35;;;1.98;;
43861;SDS011;29510;52.140;5.034;2024-03-25T02:34:36;14.13;;;2.28;;
43861;SDS011;29510;52.140;5.034;2024-03-25T02:54:41;11.68;;;2.35;;
43861;SDS011;29510;52.140;5.034;2024-03-25T03:04:42;13.43;;;2.30;;
43861;SDS011;29510;52.140;5.034;2024-03-25T03:14:43;8.93;;;2.50;;
43861;SDS011;29510;52.140;5.034;2024-03-25T03:24:43;14.32;;;2.42;;
43861;SDS011;29510;52.140;5.034;2024-03-25T03:55:21;16.63;;;3.95;;
43861;SDS011;29510;52.140;5.034;2024-03-25T04:05:22;9.95;;;2.58;;
43861;SDS011;29510;52.140;5.034;2024-03-25T04:15:23;9.45;;;2.22;;
43861;SDS011;29510;52.140;5.034;2024-03-25T04:25:23;12.17;;;2.33;;
43861;SDS011;29510;52.140;5.034;2024-03-25T04:35:24;12.23;;;2.72;;
43861;SDS011;29510;52.140;5.034;2024-03-25T04:45:25;9.43;;;2.65;;
43861;SDS011;29510;52.140;5.034;2024-03-25T04:55:26;9.88;;;2.60;;
43861;SDS011;29510;52.140;5.034;2024-03-25T05:05:32;10.27;;;3.05;;
43861;SDS011;29510;52.140;5.034;2024-03-25T05:15:37;12.15;;;3.22;;
43861;SDS011;29510;52.140;5.034;2024-03-25T05:25:39;16.67;;;3.90;;
43861;SDS011;29510;52.140;5.034;2024-03-25T05:36:03;14.13;;;3.75;;
43861;SDS011;29510;52.140;5.034;2024-03-25T05:46:04;15.30;;;4.47;;
43861;SDS011;29510;52.140;5.034;2024-03-25T05:56:05;15.52;;;4.57;;
43861;SDS011;29510;52.140;5.034;2024-03-25T06:06:05;17.15;;;4.70;;
43861;SDS011;29510;52.140;5.034;2024-03-25T06:16:06;13.90;;;4.63;;
43861;SDS011;29510;52.140;5.034;2024-03-25T06:26:07;17.40;;;5.65;;
43861;SDS011;29510;52.140;5.034;2024-03-25T06:36:07;13.35;;;5.38;;
43861;SDS011;29510;52.140;5.034;2024-03-25T06:56:11;12.60;;;4.70;;
43861;SDS011;29510;52.140;5.034;2024-03-25T07:06:12;30.40;;;10.27;;
43861;SDS011;29510;52.140;5.034;2024-03-25T07:16:13;18.77;;;5.30;;
43861;SDS011;29510;52.140;5.034;2024-03-25T07:36:22;21.08;;;5.28;;
43861;SDS011;29510;52.140;5.034;2024-03-25T07:46:24;19.60;;;4.75;;
43861;SDS011;29510;52.140;5.034;2024-03-25T07:56:25;17.35;;;4.32;;
43861;SDS011;29510;52.140;5.034;2024-03-25T08:06:25;22.02;;;5.40;;
43861;SDS011;29510;52.140;5.034;2024-03-25T08:16:26;18.85;;;5.13;;
43861;SDS011;29510;52.140;5.034;2024-03-25T08:26:27;18.08;;;4.32;;
43861;SDS011;29510;52.140;5.034;2024-03-25T08:36:28;21.98;;;3.92;;
43861;SDS011;29510;52.140;5.034;2024-03-25T09:18:07;14.95;;;3.83;;
43861;SDS011;29510;52.140;5.034;2024-03-25T09:28:07;18.30;;;4.10;;
43861;SDS011;29510;52.140;5.034;2024-03-25T09:38:11;16.80;;;3.38;;
43861;SDS011;29510;52.140;5.034;2024-03-25T09:48:48;14.60;;;4.07;;
43861;SDS011;29510;52.140;5.034;2024-03-25T09:58:53;13.57;;;4.15;;
43861;SDS011;29510;52.140;5.034;2024-03-25T10:08:54;15.23;;;3.90;;
43861;SDS011;29510;52.140;5.034;2024-03-25T10:18:57;16.88;;;5.00;;
43861;SDS011;29510;52.140;5.034;2024-03-25T10:29:07;21.38;;;6.85;;
43861;SDS011;29510;52.140;5.034;2024-03-25T10:39:09;19.00;;;7.63;;
43861;SDS011;29510;52.140;5.034;2024-03-25T10:49:22;12.35;;;6.70;;
43861;SDS011;29510;52.140;5.034;2024-03-25T10:59:31;15.73;;;7.05;;
43861;SDS011;29510;52.140;5.034;2024-03-25T11:09:38;17.45;;;7.32;;
43861;SDS011;29510;52.140;5.034;2024-03-25T11:19:40;14.98;;;6.90;;
43861;SDS011;29510;52.140;5.034;2024-03-25T11:29:41;11.98;;;6.78;;
43861;SDS011;29510;52.140;5.034;2024-03-25T11:39:42;10.77;;;4.60;;
43861;SDS011;29510;52.140;5.034;2024-03-25T11:49:44;8.60;;;3.90;;
43861;SDS011;29510;52.140;5.034;2024-03-25T11:59:45;11.32;;;4.05;;
43861;SDS011;29510;52.140;5.034;2024-03-25T12:09:48;11.07;;;4.70;;
43861;SDS011;29510;52.140;5.034;2024-03-25T12:20:08;13.18;;;4.95;;
43861;SDS011;29510;52.140;5.034;2024-03-25T12:30:09;7.05;;;4.30;;
43861;SDS011;29510;52.140;5.034;2024-03-25T12:40:11;10.07;;;3.90;;
43861;SDS011;29510;52.140;5.034;2024-03-25T12:50:24;11.82;;;6.03;;
43861;SDS011;29510;52.140;5.034;2024-03-25T13:00:25;8.48;;;3.88;;
43861;SDS011;29510;52.140;5.034;2024-03-25T13:10:26;8.45;;;3.70;;
43861;SDS011;29510;52.140;5.034;2024-03-25T13:20:27;8.55;;;4.13;;
43861;SDS011;29510;52.140;5.034;2024-03-25T13:30:29;8.80;;;3.87;;
43861;SDS011;29510;52.140;5.034;2024-03-25T13:40:31;6.40;;;3.47;;
43861;SDS011;29510;52.140;5.034;2024-03-25T13:50:32;9.63;;;3.87;;
43861;SDS011;29510;52.140;5.034;2024-03-25T14:00:32;8.83;;;3.77;;
43861;SDS011;29510;52.140;5.034;2024-03-25T14:10:35;7.03;;;3.15;;
43861;SDS011;29510;52.140;5.034;2024-03-25T14:20:36;6.50;;;3.15;;
43861;SDS011;29510;52.140;5.034;2024-03-25T14:30:37;6.38;;;2.70;;
43861;SDS011;29510;52.140;5.034;2024-03-25T14:40:38;6.55;;;3.10;;
43861;SDS011;29510;52.140;5.034;2024-03-25T14:50:39;6.78;;;3.00;;
43861;SDS011;29510;52.140;5.034;2024-03-25T15:00:39;7.78;;;3.65;;
43861;SDS011;29510;52.140;5.034;2024-03-25T15:10:40;7.17;;;3.20;;
43861;SDS011;29510;52.140;5.034;2024-03-25T15:20:41;7.30;;;3.17;;
43861;SDS011;29510;52.140;5.034;2024-03-25T15:30:41;6.32;;;3.10;;
43861;SDS011;29510;52.140;5.034;2024-03-25T15:40:42;8.87;;;3.37;;
43861;SDS011;29510;52.140;5.034;2024-03-25T15:50:47;6.53;;;3.13;;
43861;SDS011;29510;52.140;5.034;2024-03-25T16:00:48;7.90;;;3.77;;
43861;SDS011;29510;52.140;5.034;2024-03-25T16:10:48;9.02;;;3.67;;
43861;SDS011;29510;52.140;5.034;2024-03-25T16:20:49;10.97;;;3.73;;
43861;SDS011;29510;52.140;5.034;2024-03-25T16:30:49;9.73;;;4.60;;
43861;SDS011;29510;52.140;5.034;2024-03-25T16:40:50;9.35;;;4.10;;
43861;SDS011;29510;52.140;5.034;2024-03-25T16:50:51;10.80;;;3.47;;
43861;SDS011;29510;52.140;5.034;2024-03-25T17:00:52;8.35;;;3.40;;
43861;SDS011;29510;52.140;5.034;2024-03-25T17:10:52;10.88;;;3.80;;
43861;SDS011;29510;52.140;5.034;2024-03-25T17:31:40;9.65;;;3.97;;
43861;SDS011;29510;52.140;5.034;2024-03-25T17:41:43;8.82;;;4.25;;
43861;SDS011;29510;52.140;5.034;2024-03-25T17:51:44;6.72;;;3.53;;
43861;SDS011;29510;52.140;5.034;2024-03-25T18:01:44;8.80;;;3.63;;
43861;SDS011;29510;52.140;5.034;2024-03-25T18:11:45;8.15;;;3.88;;
43861;SDS011;29510;52.140;5.034;2024-03-25T18:21:46;8.20;;;3.38;;
43861;SDS011;29510;52.140;5.034;2024-03-25T18:31:46;8.32;;;3.10;;
43861;SDS011;29510;52.140;5.034;2024-03-25T18:41:48;9.07;;;3.75;;
43861;SDS011;29510;52.140;5.034;2024-03-25T18:51:48;10.00;;;3.75;;
43861;SDS011;29510;52.140;5.034;2024-03-25T19:01:52;9.32;;;3.70;;
43861;SDS011;29510;52.140;5.034;2024-03-25T19:11:53;11.20;;;4.00;;
43861;SDS011;29510;52.140;5.034;2024-03-25T19:21:54;9.32;;;4.95;;
43861;SDS011;29510;52.140;5.034;2024-03-25T19:31:55;11.07;;;4.68;;
43861;SDS011;29510;52.140;5.034;2024-03-25T19:41:55;12.13;;;4.78;;
43861;SDS011;29510;52.140;5.034;2024-03-25T19:51:56;7.68;;;4.15;;
43861;SDS011;29510;52.140;5.034;2024-03-25T20:01:56;8.43;;;4.03;;
43861;SDS011;29510;52.140;5.034;2024-03-25T20:11:57;8.32;;;4.43;;
43861;SDS011;29510;52.140;5.034;2024-03-25T20:21:58;8.70;;;3.90;;
43861;SDS011;29510;52.140;5.034;2024-03-25T20:31:58;8.93;;;3.70;;
43861;SDS011;29510;52.140;5.034;2024-03-25T20:41:59;8.10;;;3.63;;
43861;SDS011;29510;52.140;5.034;2024-03-25T20:52:00;7.97;;;3.58;;
43861;SDS011;29510;52.140;5.034;2024-03-25T21:02:00;11.25;;;3.58;;
43861;SDS011;29510;52.140;5.034;2024-03-25T21:12:01;9.90;;;3.60;;
43861;SDS011;29510;52.140;5.034;2024-03-25T21:22:02;8.43;;;3.40;;
43861;SDS011;29510;52.140;5.034;2024-03-25T21:32:03;6.22;;;3.35;;
43861;SDS011;29510;52.140;5.034;2024-03-25T21:42:03;8.48;;;3.35;;
43861;SDS011;29510;52.140;5.034;2024-03-25T21:52:30;9.50;;;3.20;;
43861;SDS011;29510;52.140;5.034;2024-03-25T22:23:36;9.88;;;3.80;;
43861;SDS011;29510;52.140;5.034;2024-03-25T22:33:37;7.23;;;3.27;;
43861;SDS011;29510;52.140;5.034;2024-03-25T22:43:37;10.82;;;3.67;;
43861;SDS011;29510;52.140;5.034;2024-03-25T23:04:22;11.07;;;3.20;;
43861;SDS011;29510;52.140;5.034;2024-03-25T23:24:41;9.40;;;3.60;;
43861;SDS011;29510;52.140;5.034;2024-03-25T23:34:45;8.38;;;3.35;;
43861;SDS011;29510;52.140;5.034;2024-03-25T23:44:46;7.55;;;3.05;;
43861;SDS011;29510;52.140;5.034;2024-03-25T23:54:54;5.10;;;2.70;;
